Time;durP1;ratioP1;P1;durP2;ratioP2;P2;SDS_P1;SDS_P2;PMS_P1;PMS_P2;Temp;Humidity;BMP_temperature;BMP_pressure;BME280_temperature;BME280_humidity;BME280_pressure;Samples;Min_cycle;Max_cycle;Signal;HPM_P1;HPM_P2
2023/05/29 00:00:56;;;;;;;6.72;2.85;;;19.20;63.20;;;;;;13040214;22;20311;-57
2023/05/29 00:05:57;;;;;;;4.50;2.88;;;19.20;63.30;;;;;;13012854;22;20003;-56
2023/05/29 00:10:58;;;;;;;5.70;3.08;;;19.20;63.30;;;;;;13040335;22;20398;-56
2023/05/29 00:16:00;;;;;;;3.85;2.60;;;19.20;63.40;;;;;;13012795;22;20071;-57
2023/05/29 00:21:01;;;;;;;8.80;3.30;;;19.10;63.10;;;;;;13039651;22;20003;-56
2023/05/29 00:26:02;;;;;;;4.75;2.80;;;19.20;63.30;;;;;;12986607;22;20376;-56
2023/05/29 00:31:03;;;;;;;4.00;2.90;;;19.10;63.30;;;;;;13039814;22;19996;-56
2023/05/29 00:36:05;;;;;;;3.97;2.80;;;19.10;63.10;;;;;;13039328;22;20498;-56
2023/05/29 00:41:06;;;;;;;3.38;2.47;;;19.10;63.10;;;;;;13015418;22;20011;-56
2023/05/29 00:46:06;;;;;;;4.85;2.42;;;19.10;63.00;;;;;;13043469;22;20284;-57
2023/05/29 00:51:09;;;;;;;5.82;3.08;;;19.10;63.10;;;;;;13043169;22;19999;-55
2023/05/29 00:56:10;;;;;;;5.28;3.08;;;19.10;63.20;;;;;;12990369;22;20003;-56
2023/05/29 01:01:11;;;;;;;5.07;2.90;;;19.10;63.10;;;;;;13015350;22;20003;-56
2023/05/29 01:06:12;;;;;;;4.78;2.92;;;19.10;63.10;;;;;;13015147;22;20037;-57
2023/05/29 01:11:36;;;;;;;4.40;2.38;;;19.10;63.10;;;;;;12989357;22;20008;-57
2023/05/29 01:16:55;;;;;;;5.88;2.45;;;19.10;63.00;;;;;;13016356;22;20002;-56
2023/05/29 01:22:54;;;;;;;5.20;2.40;;;19.10;63.00;;;;;;13015404;22;20323;-56
2023/05/29 01:27:55;;;;;;;3.88;2.45;;;19.10;63.10;;;;;;12675212;23;20121;-55
2023/05/29 01:32:56;;;;;;;6.57;2.47;;;19.10;62.90;;;;;;12964113;22;20006;-56
2023/05/29 01:37:56;;;;;;;5.63;2.10;;;19.10;62.90;;;;;;13014472;22;20006;-56
2023/05/29 01:42:57;;;;;;;6.60;2.58;;;19.00;62.90;;;;;;13041346;22;20603;-57
2023/05/29 01:47:58;;;;;;;5.72;2.28;;;19.00;63.00;;;;;;13014569;22;19998;-57
2023/05/29 01:52:59;;;;;;;4.40;2.08;;;19.00;62.90;;;;;;13014591;22;19999;-57
2023/05/29 01:58:01;;;;;;;5.95;2.72;;;19.00;63.00;;;;;;13014261;22;20048;-55
2023/05/29 02:03:02;;;;;;;5.15;2.38;;;19.00;63.00;;;;;;13014207;22;20033;-56
2023/05/29 02:08:02;;;;;;;6.38;2.75;;;19.00;63.00;;;;;;13012378;22;20315;-55
2023/05/29 02:13:03;;;;;;;4.25;2.30;;;19.00;63.00;;;;;;13012849;22;20030;-56
2023/05/29 02:18:04;;;;;;;4.95;2.35;;;19.00;62.80;;;;;;13014787;22;19999;-55
2023/05/29 02:23:05;;;;;;;4.28;2.38;;;18.90;62.60;;;;;;13041194;22;20453;-55
2023/05/29 02:28:05;;;;;;;3.10;1.65;;;18.90;62.50;;;;;;13013951;22;19992;-56
2023/05/29 02:33:06;;;;;;;3.50;2.20;;;18.90;62.60;;;;;;13013266;22;19991;-55
2023/05/29 02:38:07;;;;;;;5.22;2.72;;;18.90;62.70;;;;;;13040306;22;20142;-56
2023/05/29 02:43:12;;;;;;;5.50;2.30;;;18.90;62.70;;;;;;13012916;22;20015;-55
2023/05/29 02:48:12;;;;;;;6.30;3.28;;;18.90;62.70;;;;;;13014066;22;20027;-55
2023/05/29 02:53:13;;;;;;;6.22;2.38;;;18.90;62.70;;;;;;13040761;22;20015;-56
2023/05/29 02:58:16;;;;;;;4.53;2.30;;;18.90;62.60;;;;;;13040775;22;20056;-55
2023/05/29 03:03:16;;;;;;;3.58;1.88;;;18.90;62.80;;;;;;13040109;22;20031;-56
2023/05/29 03:08:17;;;;;;;6.00;2.63;;;18.90;62.70;;;;;;13012838;22;19995;-55
2023/05/29 03:13:18;;;;;;;5.18;1.77;;;18.80;62.70;;;;;;13040089;22;20034;-56
2023/05/29 03:18:19;;;;;;;4.97;2.00;;;18.90;62.50;;;;;;13036106;22;20026;-57
2023/05/29 03:23:20;;;;;;;6.60;2.38;;;18.80;62.50;;;;;;13037213;22;20083;-57
2023/05/29 03:28:20;;;;;;;5.07;2.38;;;18.80;62.40;;;;;;13040045;22;20487;-56
2023/05/29 03:33:21;;;;;;;4.80;2.33;;;18.80;62.30;;;;;;12986500;22;20003;-54
2023/05/29 03:38:23;;;;;;;4.28;2.20;;;18.80;62.50;;;;;;13039629;22;20409;-56
2023/05/29 03:43:23;;;;;;;4.20;2.00;;;18.80;62.20;;;;;;13012330;22;20032;-55
2023/05/29 03:48:24;;;;;;;4.40;1.92;;;18.80;62.10;;;;;;13012520;22;20076;-56
2023/05/29 03:53:25;;;;;;;6.63;2.08;;;18.80;61.60;;;;;;13039839;22;20002;-56
2023/05/29 03:58:26;;;;;;;3.67;1.83;;;18.80;61.90;;;;;;13012560;22;20434;-56
2023/05/29 04:03:28;;;;;;;5.32;1.90;;;18.80;61.80;;;;;;13039616;22;20007;-54
2023/05/29 04:08:29;;;;;;;5.97;2.22;;;18.80;62.10;;;;;;12986365;22;19991;-56
2023/05/29 04:13:30;;;;;;;5.80;2.05;;;18.80;62.00;;;;;;12987662;22;20351;-55
2023/05/29 04:18:30;;;;;;;4.63;1.85;;;18.80;62.10;;;;;;13044036;22;20029;-55
2023/05/29 04:23:31;;;;;;;6.93;3.22;;;18.80;62.10;;;;;;13016255;22;20565;-56
2023/05/29 04:28:32;;;;;;;6.75;1.98;;;18.80;62.10;;;;;;13043956;22;19991;-56
2023/05/29 04:33:36;;;;;;;6.00;1.95;;;18.80;61.80;;;;;;13016461;22;20296;-56
2023/05/29 04:38:37;;;;;;;6.53;2.13;;;18.80;62.20;;;;;;13043838;22;19999;-55
2023/05/29 04:43:37;;;;;;;6.70;2.67;;;18.80;62.10;;;;;;12948013;22;20039;-56
2023/05/29 04:48:42;;;;;;;4.80;1.55;;;18.80;62.20;;;;;;12977993;22;19992;-56
2023/05/29 04:53:42;;;;;;;7.40;2.50;;;18.70;62.10;;;;;;12952385;22;20390;-57
2023/05/29 04:58:43;;;;;;;6.20;2.25;;;18.80;61.40;;;;;;12926374;22;20074;-56
2023/05/29 05:03:44;;;;;;;7.22;1.83;;;18.80;61.20;;;;;;12976841;22;20036;-56
2023/05/29 05:08:45;;;;;;;9.10;2.33;;;18.80;61.40;;;;;;12950352;22;19998;-55
2023/05/29 05:13:46;;;;;;;7.65;2.55;;;18.80;60.90;;;;;;12948907;22;20414;-55
2023/05/29 05:18:47;;;;;;;9.65;2.90;;;18.80;61.60;;;;;;12972405;22;20003;-55
2023/05/29 05:23:47;;;;;;;9.00;3.42;;;18.90;62.40;;;;;;12945369;22;20035;-55
2023/05/29 05:28:48;;;;;;;10.05;2.53;;;18.90;62.00;;;;;;12947853;22;20027;-57
2023/05/29 05:33:48;;;;;;;11.02;2.67;;;19.00;62.00;;;;;;12974223;22;20031;-57
2023/05/29 05:38:49;;;;;;;11.15;2.38;;;19.00;62.50;;;;;;12974995;22;20335;-55
2023/05/29 05:43:50;;;;;;;13.88;2.45;;;19.10;62.70;;;;;;13019026;22;20049;-57
2023/05/29 05:48:51;;;;;;;15.00;2.92;;;19.00;62.30;;;;;;13011964;22;20006;-57
2023/05/29 05:53:52;;;;;;;21.90;2.90;;;19.00;62.30;;;;;;13011932;22;20074;-58
2023/05/29 05:58:53;;;;;;;9.93;3.33;;;19.00;62.40;;;;;;13040547;22;20011;-58
2023/05/29 06:03:54;;;;;;;13.57;2.90;;;19.00;62.20;;;;;;13039710;22;20060;-55
2023/05/29 06:08:56;;;;;;;14.40;4.38;;;18.80;61.60;;;;;;13039758;22;20049;-57
2023/05/29 06:13:57;;;;;;;13.60;3.30;;;18.80;61.70;;;;;;13012353;22;20070;-56
2023/05/29 06:18:57;;;;;;;16.65;4.07;;;18.70;60.10;;;;;;13039866;22;20469;-57
2023/05/29 06:23:58;;;;;;;14.25;3.67;;;18.70;60.00;;;;;;13011328;22;20007;-57
2023/05/29 06:28:59;;;;;;;11.98;2.85;;;18.70;59.90;;;;;;13037848;22;20374;-57
2023/05/29 06:34:00;;;;;;;11.50;2.70;;;18.70;59.80;;;;;;13011421;22;20006;-57
2023/05/29 06:39:01;;;;;;;12.27;3.35;;;18.70;59.70;;;;;;13038135;22;19995;-56
2023/05/29 06:44:02;;;;;;;12.65;3.90;;;18.70;59.50;;;;;;13010490;22;20040;-57
2023/05/29 06:49:03;;;;;;;10.40;2.75;;;18.70;59.50;;;;;;13011945;22;20026;-57
2023/05/29 06:54:04;;;;;;;10.15;3.55;;;18.80;59.60;;;;;;13010556;22;20019;-56
2023/05/29 06:59:04;;;;;;;9.77;2.55;;;18.80;59.40;;;;;;13013337;22;20004;-58
2023/05/29 07:04:06;;;;;;;6.57;2.47;;;18.80;59.60;;;;;;13039462;22;20054;-57
2023/05/29 07:09:07;;;;;;;9.98;2.65;;;18.80;59.60;;;;;;13039906;22;19996;-57
2023/05/29 07:14:07;;;;;;;18.27;3.35;;;18.80;59.30;;;;;;13039954;22;20553;-57
2023/05/29 07:19:08;;;;;;;9.77;3.53;;;18.80;59.30;;;;;;13038238;22;20126;-57
2023/05/29 07:24:09;;;;;;;10.85;2.30;;;18.90;59.10;;;;;;12986853;22;20011;-57
2023/05/29 07:29:10;;;;;;;8.30;3.20;;;18.90;59.00;;;;;;13037822;22;19995;-54
2023/05/29 07:34:11;;;;;;;10.57;2.70;;;18.90;58.80;;;;;;13009964;22;20514;-55
2023/05/29 07:39:11;;;;;;;11.95;2.80;;;18.90;58.80;;;;;;13039735;22;20010;-55
2023/05/29 07:44:12;;;;;;;6.43;2.40;;;18.90;58.40;;;;;;13011025;22;20098;-56
2023/05/29 07:49:13;;;;;;;8.35;2.40;;;18.90;58.50;;;;;;13040487;22;20294;-56
2023/05/29 07:54:17;;;;;;;10.02;2.20;;;19.00;58.50;;;;;;13041611;22;20095;-56
2023/05/29 07:59:18;;;;;;;5.28;2.17;;;19.00;58.50;;;;;;13041194;22;20022;-56
2023/05/29 08:04:18;;;;;;;8.85;2.90;;;19.00;58.60;;;;;;13014574;22;20449;-56
2023/05/29 08:09:19;;;;;;;7.07;2.28;;;19.00;58.70;;;;;;13040957;22;20002;-56
2023/05/29 08:14:20;;;;;;;5.57;1.70;;;19.00;58.80;;;;;;13041205;22;20663;-56
2023/05/29 08:19:20;;;;;;;6.43;2.38;;;19.00;58.80;;;;;;13042023;22;20403;-56
2023/05/29 08:24:21;;;;;;;8.68;2.60;;;19.10;58.90;;;;;;13013268;22;20082;-56
2023/05/29 08:29:22;;;;;;;6.00;1.90;;;19.00;58.90;;;;;;13040866;22;20048;-55
2023/05/29 08:34:22;;;;;;;4.80;2.30;;;19.00;58.90;;;;;;13013465;22;20486;-55
2023/05/29 08:39:23;;;;;;;7.70;2.05;;;19.10;59.00;;;;;;13040806;22;20087;-57
2023/05/29 08:44:25;;;;;;;6.30;2.28;;;19.10;59.10;;;;;;12935645;22;20650;-56
2023/05/29 08:49:29;;;;;;;5.65;2.13;;;19.10;59.10;;;;;;12949713;22;20062;-57
2023/05/29 08:54:32;;;;;;;6.80;2.28;;;19.10;59.10;;;;;;12949569;22;19996;-56
2023/05/29 08:59:34;;;;;;;7.00;2.65;;;19.10;59.10;;;;;;12976258;22;20060;-56
2023/05/29 09:04:35;;;;;;;4.43;2.00;;;19.10;59.00;;;;;;12949499;22;20007;-56
2023/05/29 09:09:36;;;;;;;4.70;1.70;;;19.10;59.10;;;;;;12949559;22;19999;-56
2023/05/29 09:14:42;;;;;;;6.97;2.50;;;19.10;59.10;;;;;;12976251;22;20006;-56
2023/05/29 09:19:43;;;;;;;7.38;2.13;;;19.10;59.20;;;;;;12949260;22;20003;-54
2023/05/29 09:24:47;;;;;;;6.28;1.77;;;19.10;59.20;;;;;;12923415;22;20011;-57
2023/05/29 09:29:48;;;;;;;7.28;1.80;;;19.10;59.20;;;;;;12949199;22;19995;-56
2023/05/29 09:34:54;;;;;;;5.93;2.28;;;19.10;59.30;;;;;;12948900;22;19999;-56
2023/05/29 09:39:55;;;;;;;3.88;1.90;;;19.20;59.40;;;;;;12949185;22;20482;-56
2023/05/29 09:44:56;;;;;;;5.13;2.00;;;19.20;59.50;;;;;;13035671;22;20098;-56
2023/05/29 09:49:57;;;;;;;5.22;2.03;;;19.20;59.50;;;;;;13040933;22;20333;-58
2023/05/29 09:54:58;;;;;;;5.00;1.63;;;19.20;59.50;;;;;;12988750;22;20003;-55
2023/05/29 10:00:01;;;;;;;5.43;1.80;;;19.20;59.40;;;;;;13013464;22;19996;-56
2023/05/29 10:05:01;;;;;;;7.25;2.25;;;19.20;59.30;;;;;;12989202;22;20072;-57
2023/05/29 10:10:07;;;;;;;4.30;2.13;;;19.30;59.40;;;;;;13041769;22;19991;-57
2023/05/29 10:15:13;;;;;;;5.78;1.98;;;19.30;59.50;;;;;;13040672;22;20625;-57
2023/05/29 10:20:16;;;;;;;7.20;2.15;;;19.30;59.30;;;;;;13041442;22;20006;-56
2023/05/29 10:25:20;;;;;;;6.40;2.05;;;19.30;59.50;;;;;;13012518;22;20070;-54
2023/05/29 10:30:43;;;;;;;11.88;2.17;;;19.40;59.00;;;;;;13011638;22;20022;-58
2023/05/29 10:36:05;;;;;;;6.03;1.90;;;19.50;59.00;;;;;;13038544;22;19999;-56
2023/05/29 10:41:27;;;;;;;8.00;2.20;;;19.60;59.40;;;;;;13014868;22;20096;-55
2023/05/29 10:46:44;;;;;;;6.43;1.65;;;19.60;60.00;;;;;;13040436;22;20007;-57
2023/05/29 10:51:46;;;;;;;13.68;2.53;;;19.70;58.90;;;;;;13041297;22;20015;-55
2023/05/29 10:56:57;;;;;;;18.90;3.10;;;19.60;59.10;;;;;;13013488;22;20009;-56
2023/05/29 11:01:59;;;;;;;17.48;2.92;;;19.60;59.80;;;;;;13013316;22;20446;-56
2023/05/29 11:07:03;;;;;;;34.28;5.72;;;19.70;60.40;;;;;;13013400;22;20568;-56
2023/05/29 11:12:33;;;;;;;22.85;3.70;;;19.70;60.50;;;;;;13013500;22;20821;-57
2023/05/29 11:17:37;;;;;;;25.33;4.55;;;19.60;60.50;;;;;;13014895;22;19996;-56
2023/05/29 11:22:58;;;;;;;19.92;4.55;;;19.60;60.80;;;;;;13037746;22;20034;-54
2023/05/29 11:28:00;;;;;;;23.48;4.15;;;19.60;61.00;;;;;;13039283;22;19999;-54
2023/05/29 11:33:05;;;;;;;38.17;4.63;;;19.60;61.00;;;;;;13040334;22;20003;-54
2023/05/29 11:38:05;;;;;;;28.52;5.80;;;19.60;61.50;;;;;;13011477;22;19999;-55
2023/05/29 11:43:06;;;;;;;32.83;4.20;;;19.60;61.60;;;;;;13009797;22;20373;-54
2023/05/29 11:48:07;;;;;;;41.90;5.03;;;19.70;61.10;;;;;;13011793;22;20006;-55
2023/05/29 11:53:08;;;;;;;33.40;5.25;;;19.70;60.60;;;;;;13039667;22;20010;-53
2023/05/29 11:58:09;;;;;;;37.58;5.00;;;19.80;60.70;;;;;;13039119;22;20431;-55
2023/05/29 12:03:11;;;;;;;25.85;4.95;;;19.80;60.40;;;;;;13011704;22;20011;-55
2023/05/29 12:08:12;;;;;;;17.65;4.70;;;19.80;60.20;;;;;;13010806;22;20070;-55
2023/05/29 12:13:14;;;;;;;19.15;4.15;;;19.80;60.10;;;;;;13038505;22;20023;-58
2023/05/29 12:18:15;;;;;;;16.70;4.70;;;19.70;60.10;;;;;;13009806;22;19995;-55
2023/05/29 12:23:20;;;;;;;17.48;3.97;;;19.70;59.80;;;;;;13009891;22;20007;-53
2023/05/29 12:28:21;;;;;;;16.20;4.20;;;19.70;59.70;;;;;;13009908;22;20000;-54
2023/05/29 12:33:33;;;;;;;9.60;3.08;;;19.60;59.50;;;;;;13009295;22;20023;-56
2023/05/29 12:38:50;;;;;;;12.98;3.00;;;19.60;59.30;;;;;;13014046;22;20045;-57
2023/05/29 12:43:55;;;;;;;9.48;3.55;;;19.60;59.20;;;;;;12987114;22;20018;-58
2023/05/29 12:48:56;;;;;;;12.50;3.40;;;19.60;59.00;;;;;;13039993;22;20048;-56
2023/05/29 12:53:58;;;;;;;15.85;2.97;;;19.60;59.00;;;;;;12987267;22;20008;-56
2023/05/29 12:58:59;;;;;;;9.80;3.10;;;19.60;58.60;;;;;;13013381;22;20041;-57
2023/05/29 13:03:59;;;;;;;7.90;2.88;;;19.60;58.60;;;;;;13041866;22;20450;-57
2023/05/29 13:09:00;;;;;;;14.82;3.42;;;19.60;58.50;;;;;;13012666;22;20063;-57
2023/05/29 13:14:01;;;;;;;11.48;4.03;;;19.60;58.50;;;;;;13040908;22;20003;-56
2023/05/29 13:19:01;;;;;;;12.50;3.33;;;19.60;58.60;;;;;;13013145;22;19999;-57
2023/05/29 13:24:02;;;;;;;10.98;3.65;;;19.70;58.40;;;;;;12987353;22;20007;-57
2023/05/29 13:29:03;;;;;;;11.88;3.13;;;19.80;58.70;;;;;;13039892;22;19991;-56
2023/05/29 13:34:04;;;;;;;19.60;4.15;;;19.80;58.10;;;;;;13012868;22;20013;-56
2023/05/29 13:39:06;;;;;;;17.15;5.00;;;19.80;58.70;;;;;;13010559;22;20007;-56
2023/05/29 13:44:07;;;;;;;19.25;4.22;;;19.80;58.10;;;;;;13037931;22;20316;-58
2023/05/29 13:49:07;;;;;;;18.63;5.28;;;20.00;61.30;;;;;;13038553;22;20023;-55
2023/05/29 13:54:08;;;;;;;16.35;4.20;;;20.10;60.20;;;;;;13038537;22;20327;-55
2023/05/29 13:59:09;;;;;;;15.73;3.95;;;20.20;59.90;;;;;;13013977;22;20076;-56
2023/05/29 14:04:10;;;;;;;18.00;3.83;;;20.30;59.50;;;;;;13011154;22;20042;-56
2023/05/29 14:09:11;;;;;;;18.70;3.72;;;20.40;59.00;;;;;;13037561;22;20005;-59
2023/05/29 14:14:11;;;;;;;17.95;4.88;;;20.50;59.20;;;;;;13011746;22;20388;-57
2023/05/29 14:19:12;;;;;;;22.77;4.10;;;20.50;60.30;;;;;;13010254;22;20114;-56
2023/05/29 14:24:14;;;;;;;18.67;4.57;;;20.40;61.60;;;;;;12985372;22;20351;-58
2023/05/29 14:29:15;;;;;;;25.50;4.32;;;20.50;62.50;;;;;;13012092;22;19995;-55
2023/05/29 14:34:16;;;;;;;28.60;4.80;;;20.60;63.10;;;;;;13010151;22;20022;-57
2023/05/29 14:39:17;;;;;;;13.55;4.28;;;20.60;63.60;;;;;;13010503;22;20010;-59
2023/05/29 14:44:18;;;;;;;13.98;4.57;;;20.70;65.20;;;;;;13009130;22;20018;-57
2023/05/29 14:49:19;;;;;;;23.55;4.85;;;20.80;64.60;;;;;;13010189;22;20420;-56
2023/05/29 14:54:20;;;;;;;23.23;5.10;;;20.70;65.50;;;;;;13010966;22;19996;-58
2023/05/29 14:59:21;;;;;;;39.20;7.20;;;20.70;63.10;;;;;;13009707;22;20075;-61
2023/05/29 15:04:21;;;;;;;32.03;8.73;;;20.60;62.40;;;;;;13037573;22;20007;-62
2023/05/29 15:09:22;;;;;;;33.15;8.27;;;20.60;62.00;;;;;;13037125;22;20022;-59
2023/05/29 15:14:23;;;;;;;38.88;13.15;;;20.70;60.40;;;;;;13010336;22;19995;-59
2023/05/29 15:19:24;;;;;;;25.80;12.75;;;20.70;59.20;;;;;;13009987;22;20330;-60
2023/05/29 15:24:25;;;;;;;54.53;27.67;;;20.80;57.90;;;;;;13036824;22;20035;-59
2023/05/29 15:29:25;;;;;;;46.72;26.17;;;20.90;57.50;;;;;;13035401;22;20331;-61
2023/05/29 15:34:26;;;;;;;73.07;39.08;;;20.80;57.50;;;;;;13036739;22;20000;-59
2023/05/29 15:39:27;;;;;;;53.97;23.50;;;20.80;57.50;;;;;;13036174;22;19999;-60
2023/05/29 15:44:28;;;;;;;47.22;19.98;;;20.90;56.90;;;;;;13009439;22;20465;-59
2023/05/29 15:49:28;;;;;;;36.03;15.45;;;20.80;56.10;;;;;;13009424;22;20296;-60
2023/05/29 15:54:29;;;;;;;33.92;14.27;;;20.90;55.90;;;;;;13036891;22;20007;-61
2023/05/29 15:59:30;;;;;;;31.75;12.07;;;20.80;55.80;;;;;;13009873;22;20000;-57
2023/05/29 16:04:31;;;;;;;24.48;10.00;;;20.90;54.30;;;;;;13038231;22;20057;-57
2023/05/29 16:09:32;;;;;;;25.42;8.45;;;20.90;54.00;;;;;;13010674;22;19995;-58
2023/05/29 16:14:33;;;;;;;25.52;9.00;;;20.80;53.10;;;;;;13039033;22;20422;-59
2023/05/29 16:19:33;;;;;;;20.80;6.95;;;20.70;53.40;;;;;;13012956;22;20003;-59
2023/05/29 16:24:34;;;;;;;18.65;6.85;;;20.50;52.90;;;;;;13013470;22;20022;-62
2023/05/29 16:29:35;;;;;;;17.60;7.00;;;20.40;52.80;;;;;;13014063;22;19995;-61
2023/05/29 16:34:36;;;;;;;21.52;6.85;;;20.40;53.30;;;;;;13041776;22;19995;-60
2023/05/29 16:39:38;;;;;;;31.20;6.90;;;20.40;53.10;;;;;;13037769;22;19999;-60
2023/05/29 16:44:39;;;;;;;28.60;7.65;;;20.40;53.30;;;;;;13012045;22;20035;-59
2023/05/29 16:49:41;;;;;;;21.20;6.85;;;20.40;53.90;;;;;;13040765;22;20011;-60
2023/05/29 16:54:42;;;;;;;28.60;8.00;;;20.30;53.90;;;;;;13041360;22;20006;-60
2023/05/29 16:59:43;;;;;;;20.63;7.35;;;20.30;54.30;;;;;;13014651;22;19999;-56
2023/05/29 17:04:43;;;;;;;23.60;6.03;;;20.30;54.50;;;;;;13039245;22;20042;-57
2023/05/29 17:09:44;;;;;;;23.48;6.63;;;20.30;54.80;;;;;;13014420;22;20376;-60
2023/05/29 17:14:45;;;;;;;24.92;7.05;;;20.20;55.70;;;;;;13039673;22;20057;-62
2023/05/29 17:19:46;;;;;;;29.70;5.07;;;20.40;55.80;;;;;;13040004;22;20002;-59
2023/05/29 17:24:46;;;;;;;22.75;7.03;;;20.50;55.60;;;;;;13039591;22;20004;-60
2023/05/29 17:29:47;;;;;;;17.30;5.95;;;20.40;55.70;;;;;;13041459;22;20018;-60
2023/05/29 17:34:51;;;;;;;21.33;6.65;;;20.40;56.10;;;;;;13014526;22;20027;-59
2023/05/29 17:39:53;;;;;;;21.83;6.53;;;20.40;56.80;;;;;;13015170;22;19996;-58
2023/05/29 17:44:54;;;;;;;22.38;6.38;;;20.40;57.00;;;;;;13040537;22;20011;-57
2023/05/29 17:49:55;;;;;;;19.30;6.30;;;20.40;57.50;;;;;;13014131;22;20406;-57
2023/05/29 17:54:55;;;;;;;19.13;6.72;;;20.30;58.20;;;;;;13014526;22;20422;-59
2023/05/29 17:59:56;;;;;;;19.90;6.72;;;20.30;58.60;;;;;;13014654;22;19995;-57
2023/05/29 18:04:57;;;;;;;23.15;8.10;;;20.30;58.70;;;;;;13014410;22;20049;-60
2023/05/29 18:09:58;;;;;;;14.13;4.55;;;20.40;58.20;;;;;;13038254;22;20018;-59
2023/05/29 18:14:58;;;;;;;16.42;4.70;;;20.30;58.10;;;;;;13040996;22;20002;-61
2023/05/29 18:19:59;;;;;;;16.50;5.05;;;20.20;57.80;;;;;;13012823;22;20002;-59
2023/05/29 18:25:00;;;;;;;23.48;7.45;;;20.20;58.00;;;;;;13041451;22;20358;-59
2023/05/29 18:30:00;;;;;;;16.83;6.13;;;20.10;57.40;;;;;;13013252;22;19991;-61
2023/05/29 18:35:01;;;;;;;18.45;6.57;;;20.20;57.50;;;;;;13013738;22;20045;-61
2023/05/29 18:40:04;;;;;;;17.33;5.07;;;20.20;57.40;;;;;;12987807;22;19999;-59
2023/05/29 18:45:05;;;;;;;19.48;5.57;;;20.20;57.60;;;;;;13040263;22;20039;-59
2023/05/29 18:50:06;;;;;;;11.20;3.97;;;20.20;57.70;;;;;;13012997;22;20057;-60
2023/05/29 18:55:08;;;;;;;11.13;4.97;;;20.30;57.90;;;;;;13040125;22;20048;-60
2023/05/29 19:00:09;;;;;;;13.80;4.38;;;20.10;57.90;;;;;;13013197;22;20483;-60
2023/05/29 19:05:10;;;;;;;15.38;4.40;;;20.00;57.80;;;;;;13040394;22;20008;-60
2023/05/29 19:10:11;;;;;;;11.75;4.13;;;20.00;58.10;;;;;;13040316;22;19995;-61
2023/05/29 19:15:15;;;;;;;10.65;4.50;;;19.90;58.20;;;;;;13012372;22;20078;-63
2023/05/29 19:20:16;;;;;;;17.30;4.45;;;19.90;58.30;;;;;;13039515;22;20023;-56
2023/05/29 19:25:16;;;;;;;11.30;3.35;;;19.90;57.90;;;;;;13011874;22;20035;-58
2023/05/29 19:30:21;;;;;;;10.80;3.80;;;19.90;58.00;;;;;;13011749;22;20086;-57
2023/05/29 19:35:21;;;;;;;16.77;5.75;;;19.90;57.70;;;;;;12986756;22;20004;-57
2023/05/29 19:40:22;;;;;;;16.17;4.32;;;19.90;58.10;;;;;;13037199;22;20019;-58
2023/05/29 19:45:22;;;;;;;11.38;4.05;;;19.90;58.00;;;;;;13043084;22;20474;-57
2023/05/29 19:50:24;;;;;;;9.43;2.88;;;19.80;57.90;;;;;;13017389;22;19998;-57
2023/05/29 19:55:24;;;;;;;10.65;3.85;;;19.80;58.10;;;;;;13044105;22;19995;-56
2023/05/29 20:00:25;;;;;;;10.63;2.92;;;19.80;58.20;;;;;;13014712;22;20204;-56
2023/05/29 20:05:26;;;;;;;10.88;3.90;;;19.80;58.40;;;;;;13014029;22;20035;-56
2023/05/29 20:10:28;;;;;;;10.70;2.80;;;19.70;58.30;;;;;;13015681;22;20048;-57
2023/05/29 20:15:29;;;;;;;7.25;2.97;;;19.70;58.20;;;;;;13014901;22;20054;-57
2023/05/29 20:20:30;;;;;;;7.20;2.80;;;19.70;58.20;;;;;;13040672;22;20419;-56
2023/05/29 20:25:31;;;;;;;8.02;3.65;;;19.70;58.40;;;;;;13013625;22;20086;-57
2023/05/29 20:30:31;;;;;;;13.65;3.97;;;19.70;58.40;;;;;;13042388;22;19991;-56
2023/05/29 20:35:35;;;;;;;10.63;3.03;;;19.70;58.40;;;;;;13016217;22;20005;-57
2023/05/29 20:40:36;;;;;;;8.38;2.53;;;19.60;58.10;;;;;;13043981;22;20302;-58
2023/05/29 20:45:38;;;;;;;9.63;3.10;;;19.60;58.10;;;;;;13043504;22;20099;-56
2023/05/29 20:50:39;;;;;;;12.02;3.20;;;19.60;58.50;;;;;;13042515;22;19995;-57
2023/05/29 20:55:40;;;;;;;14.57;4.43;;;19.60;58.00;;;;;;13015803;22;20005;-57
2023/05/29 21:00:41;;;;;;;8.15;2.60;;;19.60;58.00;;;;;;13015477;22;20022;-57
2023/05/29 21:05:42;;;;;;;11.60;3.42;;;19.60;58.00;;;;;;13015425;22;20079;-57
2023/05/29 21:10:42;;;;;;;7.97;3.38;;;19.50;57.30;;;;;;13015499;22;20018;-57
2023/05/29 21:15:43;;;;;;;8.60;2.72;;;19.50;57.10;;;;;;13042634;22;19995;-57
2023/05/29 21:20:44;;;;;;;16.67;2.70;;;19.60;57.30;;;;;;13042911;22;19999;-57
2023/05/29 21:25:45;;;;;;;8.55;2.85;;;19.50;57.00;;;;;;13015848;22;20015;-55
2023/05/29 21:30:46;;;;;;;9.43;2.90;;;19.50;56.90;;;;;;13042675;22;20435;-57
2023/05/29 21:35:47;;;;;;;6.45;2.08;;;19.50;56.80;;;;;;13042527;22;20013;-56
2023/05/29 21:40:48;;;;;;;8.88;3.45;;;19.50;56.90;;;;;;13042098;22;20469;-56
2023/05/29 21:45:48;;;;;;;5.47;2.13;;;19.50;57.00;;;;;;13042050;22;20030;-57
2023/05/29 21:50:49;;;;;;;5.72;1.92;;;19.50;57.00;;;;;;13041881;22;20006;-57
2023/05/29 21:55:50;;;;;;;6.68;2.08;;;19.50;57.00;;;;;;13014652;22;19999;-57
2023/05/29 22:00:51;;;;;;;13.85;3.28;;;19.40;56.90;;;;;;13041803;22;20003;-57
2023/05/29 22:05:52;;;;;;;5.68;2.15;;;19.40;57.70;;;;;;13013931;22;20042;-57
2023/05/29 22:10:53;;;;;;;6.32;2.42;;;19.40;56.90;;;;;;13041696;22;20091;-58
2023/05/29 22:15:53;;;;;;;7.57;2.13;;;19.40;57.00;;;;;;13042189;22;20070;-57
2023/05/29 22:20:54;;;;;;;5.72;2.38;;;19.40;57.10;;;;;;13041784;22;20526;-58
2023/05/29 22:25:59;;;;;;;5.40;2.45;;;19.40;57.20;;;;;;13039895;22;20003;-55
2023/05/29 22:31:00;;;;;;;5.20;2.20;;;19.40;57.20;;;;;;13014208;22;20071;-57
2023/05/29 22:36:01;;;;;;;4.95;1.80;;;19.40;57.20;;;;;;12988410;22;20445;-56
2023/05/29 22:41:02;;;;;;;8.02;2.50;;;19.30;57.10;;;;;;13040631;22;20023;-56
2023/05/29 22:46:04;;;;;;;3.97;1.73;;;19.30;57.20;;;;;;13014033;22;20015;-56
2023/05/29 22:51:08;;;;;;;3.97;1.60;;;19.40;57.30;;;;;;12988150;22;19995;-57
2023/05/29 22:56:09;;;;;;;3.58;1.98;;;19.30;57.20;;;;;;13041392;22;20010;-55
2023/05/29 23:01:09;;;;;;;5.93;2.00;;;19.30;57.20;;;;;;12988117;22;20358;-57
2023/05/29 23:06:11;;;;;;;7.15;2.95;;;19.30;57.20;;;;;;13040458;22;20504;-56
2023/05/29 23:11:12;;;;;;;4.97;1.65;;;19.30;57.20;;;;;;13013643;22;20071;-59
2023/05/29 23:16:16;;;;;;;8.88;2.45;;;19.30;57.20;;;;;;13040268;22;20074;-57
2023/05/29 23:21:18;;;;;;;7.60;2.50;;;19.30;57.20;;;;;;13040432;22;20022;-56
2023/05/29 23:26:20;;;;;;;4.13;1.90;;;19.30;57.30;;;;;;13040351;22;20011;-57
2023/05/29 23:31:20;;;;;;;5.03;2.17;;;19.30;57.30;;;;;;13012664;22;20002;-57
2023/05/29 23:36:23;;;;;;;4.65;1.38;;;19.30;57.30;;;;;;13013252;22;20027;-55
2023/05/29 23:41:23;;;;;;;6.28;2.33;;;19.30;57.40;;;;;;13012915;22;20319;-57
2023/05/29 23:46:24;;;;;;;5.30;2.03;;;19.20;57.40;;;;;;13012781;22;20067;-56
2023/05/29 23:51:28;;;;;;;4.53;1.58;;;19.20;57.70;;;;;;13040402;22;19996;-57
2023/05/29 23:56:29;;;;;;;4.15;1.80;;;19.20;57.40;;;;;;13039381;22;20723;-57
